To NAV CANADA Home Page Login to a new session Search on AWWS site Feedback and Comments Disclaimer Vers la page française équivalente Tips FAQ What's new on the site To the Forecasts and Observations / NOTAM section To "File a Flight Plan" website Publications and other links Update of the User's profile FIC Telephone Numbers My Weather Data Folder Route Weather Data Regional Weather Data Local Weather Data To the Forecasts and Observations / NOTAM section
Request Generated 07/29/2016 at 12:04:07 UTC . Weather information available at that time is displayed.

METAR/TAF

NAIN/NL    

METAR CYDP 291200Z 35008KT 7SM -SHRA BKN005 OVC010 07/06 A2990 RMK
ST7SC1 SLP127=
SPECI CYDP 291140Z 34008KT 7SM -SHRA BKN005 OVC010 07/06 A2990 RMK
ST7SC1 SLP128=
METAR CYDP 291100Z 34008KT 7SM -RA BKN003 OVC080 06/06 A2990 RMK
SC6AS2 SLP127=
METAR CYDP 291000Z 33007KT 8SM -RA BKN003 OVC080 07/06 A2990 RMK
ST6AS2 SLP126=

TAF CYDP 290938Z 2910/2922 34008KT 4SM -RA -DZ BR OVC002 TEMPO
2910/2915 P6SM NSW OVC012
FM291500 33012KT 5SM -DZ BR OVC012 TEMPO 2915/2922 P6SM NSW
OVC015
RMK NXT FCST BY 291400Z=
Your time UTC time
Weather data provided by Environment Canada and NAV CANADA